Time;durP1;ratioP1;P1;durP2;ratioP2;P2;SDS_P1;SDS_P2;PMS_P1;PMS_P2;Temp;Humidity;BMP_temperature;BMP_pressure;BME280_temperature;BME280_humidity;BME280_pressure;Samples;Min_cycle;Max_cycle;Signal;HPM_P1;HPM_P2
2020/12/09 00:01:40;;;;;;;212.70;51.77;;;2.10;99.90;;;;;;5062199;28;20211;-75
2020/12/09 00:04:07;;;;;;;275.47;58.03;;;2.00;99.90;;;;;;5065750;28;20222;-75
2020/12/09 00:06:37;;;;;;;224.00;52.83;;;2.00;99.90;;;;;;5063424;28;20304;-74
2020/12/09 00:09:05;;;;;;;188.87;49.53;;;2.00;99.90;;;;;;5064434;28;20230;-73
2020/12/09 00:11:32;;;;;;;255.63;54.30;;;2.00;99.90;;;;;;5062202;28;20211;-75
2020/12/09 00:13:58;;;;;;;213.90;53.67;;;2.00;99.90;;;;;;5063521;28;20235;-74
2020/12/09 00:16:25;;;;;;;292.07;61.90;;;2.10;99.90;;;;;;5059222;28;20672;-74
2020/12/09 00:18:52;;;;;;;236.00;52.10;;;2.10;99.90;;;;;;5064138;28;20243;-74
2020/12/09 00:21:20;;;;;;;235.37;53.13;;;2.10;99.90;;;;;;5062649;28;20221;-73
2020/12/09 00:23:47;;;;;;;210.40;51.00;;;2.10;99.90;;;;;;5061674;28;20560;-74
2020/12/09 00:26:17;;;;;;;236.83;53.50;;;2.10;99.90;;;;;;5064102;28;20651;-74
2020/12/09 00:28:43;;;;;;;242.70;53.03;;;2.10;99.90;;;;;;5061776;28;20218;-73
2020/12/09 00:31:10;;;;;;;193.10;52.17;;;2.10;99.90;;;;;;5064569;28;20198;-74
2020/12/09 00:33:36;;;;;;;161.70;50.47;;;2.20;99.90;;;;;;5062369;28;20203;-75
2020/12/09 00:36:04;;;;;;;287.97;63.73;;;2.20;99.90;;;;;;5065062;28;20198;-74
2020/12/09 00:38:30;;;;;;;247.53;57.73;;;2.20;99.90;;;;;;5064736;28;20206;-74
2020/12/09 00:40:57;;;;;;;265.77;60.33;;;2.10;99.90;;;;;;5065409;28;20205;-75
2020/12/09 00:43:23;;;;;;;219.10;54.17;;;2.20;99.90;;;;;;5065003;28;20205;-74
2020/12/09 00:45:50;;;;;;;235.23;56.43;;;2.20;99.90;;;;;;5067507;28;20605;-74
2020/12/09 00:48:16;;;;;;;204.93;55.07;;;2.20;99.90;;;;;;5068817;28;20231;-74
2020/12/09 00:50:43;;;;;;;252.93;58.33;;;2.20;99.90;;;;;;5069949;28;20205;-74
2020/12/09 00:53:10;;;;;;;246.40;57.90;;;2.20;99.90;;;;;;5064634;28;20219;-76
2020/12/09 00:55:37;;;;;;;222.00;56.33;;;2.30;99.90;;;;;;5068265;28;20686;-76
2020/12/09 00:58:03;;;;;;;262.30;60.53;;;2.30;99.90;;;;;;5065404;28;20268;-75
2020/12/09 01:00:30;;;;;;;190.10;54.70;;;2.30;99.90;;;;;;5068186;28;20211;-74
2020/12/09 01:02:56;;;;;;;231.10;57.47;;;2.30;99.90;;;;;;5065729;28;20281;-75
2020/12/09 01:05:23;;;;;;;187.77;53.83;;;2.30;99.90;;;;;;5066300;28;20210;-74
2020/12/09 01:07:49;;;;;;;186.27;55.83;;;2.30;99.90;;;;;;5065223;28;20213;-75
2020/12/09 01:10:17;;;;;;;168.53;51.90;;;2.30;99.90;;;;;;5066080;28;20233;-75
2020/12/09 01:12:43;;;;;;;186.73;53.90;;;2.40;99.90;;;;;;5064208;28;20620;-75
2020/12/09 01:15:10;;;;;;;212.03;56.07;;;2.40;99.90;;;;;;5067334;28;20210;-74
2020/12/09 01:17:37;;;;;;;196.97;56.90;;;2.40;99.90;;;;;;5065777;28;21428;-75
2020/12/09 01:20:03;;;;;;;162.80;52.57;;;2.40;99.90;;;;;;5063980;28;20194;-73
2020/12/09 01:22:30;;;;;;;181.50;53.83;;;2.40;99.90;;;;;;5062856;28;20203;-73
2020/12/09 01:24:57;;;;;;;133.00;50.47;;;2.40;99.90;;;;;;5063513;28;20214;-74
2020/12/09 01:27:25;;;;;;;208.50;56.57;;;2.40;99.90;;;;;;5064927;28;20687;-75
2020/12/09 01:29:52;;;;;;;215.97;58.80;;;2.40;99.90;;;;;;5068421;28;20227;-75
2020/12/09 01:32:19;;;;;;;132.77;50.43;;;2.40;99.90;;;;;;5067412;28;20227;-74
2020/12/09 01:34:45;;;;;;;224.73;57.10;;;2.40;99.90;;;;;;5064779;28;20212;-74
2020/12/09 01:37:12;;;;;;;240.67;57.20;;;2.40;99.90;;;;;;5067243;28;20206;-75
2020/12/09 01:39:39;;;;;;;176.37;52.90;;;2.40;99.90;;;;;;5063932;28;20256;-74
2020/12/09 01:42:06;;;;;;;197.80;56.80;;;2.40;99.90;;;;;;5061304;28;20210;-74
2020/12/09 01:44:34;;;;;;;227.57;58.50;;;2.40;99.90;;;;;;5068028;28;20560;-73
2020/12/09 01:47:04;;;;;;;158.57;51.43;;;2.40;99.90;;;;;;5067407;28;20676;-76
2020/12/09 01:49:31;;;;;;;197.73;54.43;;;2.40;99.90;;;;;;5068651;28;20257;-73
2020/12/09 01:52:00;;;;;;;137.77;50.67;;;2.40;99.90;;;;;;5063361;28;20199;-73
2020/12/09 01:54:26;;;;;;;180.90;52.00;;;2.40;99.90;;;;;;5065655;28;20680;-74
2020/12/09 01:57:07;;;;;;;189.43;53.13;;;2.40;99.90;;;;;;5065126;28;20212;-75
2020/12/09 01:59:36;;;;;;;164.70;51.57;;;2.40;99.90;;;;;;5068186;28;20203;-74
2020/12/09 02:02:03;;;;;;;159.33;52.70;;;2.40;99.90;;;;;;5066299;28;20203;-74
2020/12/09 02:04:30;;;;;;;174.43;54.13;;;2.40;99.90;;;;;;5065521;28;20194;-75
2020/12/09 02:06:57;;;;;;;155.70;51.20;;;2.30;99.90;;;;;;5067006;28;20711;-75
2020/12/09 02:09:24;;;;;;;114.63;44.20;;;2.40;99.90;;;;;;5066766;28;20703;-74
2020/12/09 02:11:51;;;;;;;133.57;44.33;;;2.40;99.90;;;;;;5063229;28;20202;-75
2020/12/09 02:14:18;;;;;;;160.27;48.77;;;2.30;99.90;;;;;;5065284;28;20917;-75
2020/12/09 02:16:49;;;;;;;157.97;46.67;;;2.30;99.90;;;;;;5064475;28;20203;-75
2020/12/09 02:19:16;;;;;;;183.77;50.17;;;2.20;99.90;;;;;;5065197;28;20561;-74
2020/12/09 02:21:43;;;;;;;185.60;52.43;;;2.20;99.90;;;;;;5064106;28;20277;-75
2020/12/09 02:24:10;;;;;;;201.07;55.83;;;2.10;99.90;;;;;;5064607;28;20683;-75
2020/12/09 02:26:41;;;;;;;208.63;56.43;;;2.20;99.90;;;;;;5066291;28;20248;-73
2020/12/09 02:29:08;;;;;;;207.97;59.67;;;2.20;99.90;;;;;;5065780;28;20714;-75
2020/12/09 02:31:35;;;;;;;214.27;56.07;;;2.20;99.90;;;;;;5067582;28;20198;-75
2020/12/09 02:34:01;;;;;;;226.27;58.50;;;2.10;99.90;;;;;;5066565;28;20210;-74
2020/12/09 02:36:28;;;;;;;218.30;56.67;;;2.10;99.90;;;;;;5066123;28;20307;-74
2020/12/09 02:38:55;;;;;;;212.83;55.97;;;2.10;99.90;;;;;;5062609;28;20275;-74
2020/12/09 02:41:22;;;;;;;179.03;54.07;;;2.10;99.90;;;;;;5064828;28;20204;-74
2020/12/09 02:43:48;;;;;;;201.37;57.23;;;2.10;99.90;;;;;;5060597;28;20204;-74
2020/12/09 02:46:14;;;;;;;244.53;60.63;;;2.10;99.90;;;;;;5065977;28;20207;-74
2020/12/09 02:48:41;;;;;;;198.60;54.87;;;2.10;99.90;;;;;;5063324;28;20629;-74
2020/12/09 02:51:08;;;;;;;188.93;54.03;;;2.00;99.90;;;;;;5062425;28;20205;-73
2020/12/09 02:53:34;;;;;;;212.23;54.80;;;2.00;99.90;;;;;;5061637;28;20664;-74
2020/12/09 02:56:01;;;;;;;261.83;62.97;;;2.00;99.90;;;;;;5062915;28;20191;-75
2020/12/09 02:58:28;;;;;;;232.43;62.83;;;2.00;99.90;;;;;;5065799;28;20215;-73
2020/12/09 03:00:55;;;;;;;193.27;52.90;;;2.00;99.90;;;;;;5066475;28;20302;-74
2020/12/09 03:03:22;;;;;;;183.97;54.00;;;2.10;99.90;;;;;;5063547;28;20202;-74
2020/12/09 03:05:48;;;;;;;214.83;55.50;;;2.10;99.90;;;;;;5066008;28;20194;-73
2020/12/09 03:08:15;;;;;;;225.03;58.40;;;2.10;99.90;;;;;;5065095;28;20211;-76
2020/12/09 03:10:42;;;;;;;196.33;53.83;;;2.00;99.90;;;;;;5067235;28;20381;-74
2020/12/09 03:13:09;;;;;;;168.63;51.00;;;2.00;99.90;;;;;;5063359;28;20221;-75
2020/12/09 03:15:36;;;;;;;161.73;49.30;;;2.00;99.90;;;;;;5066253;28;20207;-77
2020/12/09 03:18:02;;;;;;;157.57;49.73;;;2.00;99.90;;;;;;5064132;28;20976;-75
2020/12/09 03:20:29;;;;;;;171.57;50.30;;;2.00;99.90;;;;;;5066041;28;20203;-77
2020/12/09 03:22:55;;;;;;;164.60;49.50;;;2.00;99.90;;;;;;5059068;28;20273;-75
2020/12/09 03:25:22;;;;;;;156.93;48.53;;;2.00;99.90;;;;;;5063371;28;20220;-76
2020/12/09 03:27:48;;;;;;;170.20;51.90;;;1.90;99.90;;;;;;5064716;28;20259;-75
2020/12/09 03:30:15;;;;;;;128.23;45.63;;;1.90;99.90;;;;;;5063116;28;20230;-73
2020/12/09 03:32:42;;;;;;;145.97;47.77;;;1.90;99.90;;;;;;5066719;28;20289;-74
2020/12/09 03:35:08;;;;;;;134.97;46.17;;;1.90;99.90;;;;;;5066023;28;20230;-74
2020/12/09 03:37:35;;;;;;;138.07;46.37;;;1.90;99.90;;;;;;5060181;28;20198;-75
2020/12/09 03:40:01;;;;;;;132.10;44.43;;;1.90;99.90;;;;;;5067824;28;20279;-75
2020/12/09 03:42:28;;;;;;;133.57;45.17;;;1.90;99.90;;;;;;5063347;28;20195;-74
2020/12/09 03:44:54;;;;;;;130.23;42.97;;;1.90;99.90;;;;;;5065388;28;20275;-74
2020/12/09 03:47:22;;;;;;;130.60;44.93;;;1.90;99.90;;;;;;5063948;28;20652;-75
2020/12/09 03:49:48;;;;;;;133.57;45.47;;;1.90;99.90;;;;;;5063160;28;20230;-75
2020/12/09 03:52:15;;;;;;;112.13;40.07;;;1.90;99.90;;;;;;5060638;28;20207;-75
2020/12/09 03:54:41;;;;;;;99.30;36.27;;;1.80;99.90;;;;;;5061331;28;20211;-74
2020/12/09 03:57:08;;;;;;;113.97;37.97;;;1.80;99.90;;;;;;5062151;28;20290;-74
2020/12/09 03:59:34;;;;;;;110.70;37.37;;;1.80;99.90;;;;;;5065211;28;20202;-73
2020/12/09 04:02:00;;;;;;;115.93;38.33;;;1.80;99.90;;;;;;5063843;28;20198;-75
2020/12/09 04:04:28;;;;;;;123.73;42.10;;;1.80;99.90;;;;;;5064264;28;20268;-73
2020/12/09 04:06:54;;;;;;;125.23;40.83;;;1.80;99.90;;;;;;5068088;28;20217;-75
2020/12/09 04:09:21;;;;;;;137.30;44.73;;;1.80;99.90;;;;;;5060746;28;20268;-74
2020/12/09 04:11:48;;;;;;;135.17;43.67;;;1.80;99.90;;;;;;5060984;28;20586;-76
2020/12/09 04:14:15;;;;;;;134.70;42.57;;;1.90;99.90;;;;;;5063710;28;20280;-73
2020/12/09 04:16:41;;;;;;;135.37;42.53;;;1.90;99.90;;;;;;5064632;28;20248;-75
2020/12/09 04:19:08;;;;;;;132.47;41.23;;;1.90;99.90;;;;;;5063450;28;20260;-73
2020/12/09 04:21:35;;;;;;;136.87;43.03;;;1.90;99.90;;;;;;5059080;28;20204;-75
2020/12/09 04:24:02;;;;;;;143.40;45.37;;;1.90;99.90;;;;;;5057942;28;20252;-73
2020/12/09 04:26:28;;;;;;;133.60;42.50;;;2.00;99.90;;;;;;5059523;28;20195;-74
2020/12/09 04:28:54;;;;;;;131.17;42.97;;;1.90;99.90;;;;;;5059251;28;20238;-74
2020/12/09 04:31:21;;;;;;;128.70;41.43;;;1.90;99.90;;;;;;5061597;28;20603;-75
2020/12/09 04:33:55;;;;;;;123.70;39.73;;;1.90;99.90;;;;;;5061700;28;20207;-74
2020/12/09 04:36:22;;;;;;;119.93;39.40;;;1.90;99.90;;;;;;5062225;28;20904;-73
2020/12/09 04:38:50;;;;;;;133.30;42.53;;;1.80;99.90;;;;;;5057702;28;20215;-75
2020/12/09 04:41:16;;;;;;;141.57;43.17;;;1.80;99.90;;;;;;5062203;28;20204;-73
2020/12/09 04:43:43;;;;;;;138.13;42.33;;;1.80;99.90;;;;;;5057807;28;20213;-74
2020/12/09 04:46:10;;;;;;;126.50;41.73;;;1.80;99.90;;;;;;5059113;28;20675;-74
2020/12/09 04:48:40;;;;;;;125.50;39.33;;;1.90;99.90;;;;;;5061320;28;20202;-75
2020/12/09 04:51:29;;;;;;;121.87;36.33;;;1.80;99.90;;;;;;5062904;28;20226;-75
2020/12/09 04:53:59;;;;;;;144.83;39.57;;;1.80;99.90;;;;;;5066794;28;20207;-74
2020/12/09 04:56:30;;;;;;;124.87;38.27;;;1.80;99.90;;;;;;5074549;28;20202;-73
2020/12/09 04:58:58;;;;;;;131.67;39.03;;;1.80;99.90;;;;;;5072745;28;20217;-75
2020/12/09 05:01:33;;;;;;;135.83;40.80;;;1.80;99.90;;;;;;5068376;28;20729;-73
2020/12/09 05:04:06;;;;;;;127.77;36.37;;;1.90;99.90;;;;;;5071633;28;20211;-74
2020/12/09 05:06:33;;;;;;;123.80;38.47;;;1.90;99.90;;;;;;5066051;28;20688;-74
2020/12/09 05:09:02;;;;;;;128.10;38.73;;;1.90;99.90;;;;;;5070239;28;20226;-73
2020/12/09 05:11:29;;;;;;;147.00;41.83;;;1.80;99.90;;;;;;5072285;28;20195;-74
2020/12/09 05:13:57;;;;;;;138.13;40.10;;;1.90;99.90;;;;;;5068608;28;20674;-73
2020/12/09 05:16:25;;;;;;;148.30;41.83;;;1.90;99.90;;;;;;5071160;28;20202;-74
2020/12/09 05:18:55;;;;;;;141.47;38.53;;;1.90;99.90;;;;;;5069295;28;20762;-75
2020/12/09 05:21:23;;;;;;;123.10;36.47;;;1.90;99.90;;;;;;5057671;28;20552;-74
2020/12/09 05:23:54;;;;;;;139.47;38.93;;;1.80;99.90;;;;;;5077168;28;20199;-73
2020/12/09 05:26:24;;;;;;;129.87;38.53;;;1.80;99.90;;;;;;5077761;28;20663;-74
2020/12/09 05:29:07;;;;;;;128.87;36.73;;;1.80;99.90;;;;;;5079931;28;20598;-73
2020/12/09 05:31:34;;;;;;;123.60;36.77;;;1.80;99.90;;;;;;5082073;28;20198;-73
2020/12/09 05:34:01;;;;;;;132.43;35.33;;;1.80;99.90;;;;;;5070906;28;20222;-73
2020/12/09 05:36:27;;;;;;;158.70;36.30;;;1.80;99.90;;;;;;5074329;28;20206;-74
2020/12/09 05:39:07;;;;;;;134.43;36.33;;;1.80;99.90;;;;;;5076093;28;20674;-74
2020/12/09 05:41:34;;;;;;;150.50;39.23;;;1.80;99.90;;;;;;5074385;28;20228;-74
2020/12/09 05:44:02;;;;;;;146.33;39.17;;;1.80;99.90;;;;;;5070865;28;20253;-74
2020/12/09 05:46:28;;;;;;;130.07;39.73;;;1.80;99.90;;;;;;5071400;28;20195;-76
2020/12/09 05:48:55;;;;;;;179.20;45.53;;;1.80;99.90;;;;;;5062124;28;20203;-75
2020/12/09 05:51:22;;;;;;;159.80;42.33;;;1.70;99.90;;;;;;5074344;28;20206;-74
2020/12/09 05:53:48;;;;;;;152.20;42.00;;;1.70;99.90;;;;;;5081609;28;20195;-74
2020/12/09 05:56:17;;;;;;;151.53;41.33;;;1.70;99.90;;;;;;5073038;28;20253;-73
2020/12/09 05:58:45;;;;;;;135.13;40.40;;;1.70;99.90;;;;;;5072073;28;20207;-73
2020/12/09 06:01:16;;;;;;;177.10;44.00;;;1.70;99.90;;;;;;5076932;28;20206;-75
2020/12/09 06:03:45;;;;;;;131.07;40.90;;;1.70;99.90;;;;;;5079330;28;20584;-75
2020/12/09 06:06:20;;;;;;;145.57;39.23;;;1.70;99.90;;;;;;5072876;28;20648;-75
2020/12/09 06:08:49;;;;;;;155.30;41.47;;;1.70;99.90;;;;;;5070635;28;20264;-74
2020/12/09 06:11:18;;;;;;;148.20;42.97;;;1.70;99.90;;;;;;5073591;28;20195;-74
2020/12/09 06:13:46;;;;;;;136.07;42.10;;;1.70;99.90;;;;;;5071227;28;20596;-74
2020/12/09 06:16:13;;;;;;;160.47;44.47;;;1.70;99.90;;;;;;5058413;28;20203;-75
2020/12/09 06:18:42;;;;;;;134.70;41.43;;;1.80;99.90;;;;;;5062164;28;20274;-74
2020/12/09 06:21:09;;;;;;;144.83;45.23;;;1.80;99.90;;;;;;5067597;28;20203;-75
2020/12/09 06:23:35;;;;;;;138.70;45.13;;;1.80;99.90;;;;;;5072111;28;20199;-74
2020/12/09 06:26:03;;;;;;;167.50;46.50;;;1.80;99.90;;;;;;5077671;28;20195;-75
2020/12/09 06:28:31;;;;;;;144.63;46.90;;;1.80;99.90;;;;;;5077535;28;20694;-73
2020/12/09 06:31:10;;;;;;;129.70;44.07;;;1.90;99.90;;;;;;5071802;28;20230;-75
2020/12/09 06:33:38;;;;;;;157.57;44.17;;;1.90;99.90;;;;;;5069716;28;20191;-75
2020/12/09 06:36:20;;;;;;;178.33;48.80;;;1.90;99.90;;;;;;5067654;28;20272;-73
2020/12/09 06:39:12;;;;;;;155.57;50.47;;;1.80;99.90;;;;;;5072628;28;20203;-74
2020/12/09 06:41:41;;;;;;;232.30;55.97;;;1.80;99.90;;;;;;5073395;28;20218;-74
2020/12/09 06:44:09;;;;;;;201.00;55.40;;;1.90;99.90;;;;;;5069429;28;20201;-75
2020/12/09 06:46:54;;;;;;;189.63;53.17;;;1.90;99.90;;;;;;5070500;28;20230;-74
2020/12/09 06:49:36;;;;;;;174.70;49.40;;;1.80;99.90;;;;;;5070681;28;20588;-75
2020/12/09 06:52:24;;;;;;;152.47;45.27;;;1.80;99.90;;;;;;5073955;28;20202;-74
2020/12/09 06:54:51;;;;;;;122.73;35.33;;;1.80;99.90;;;;;;5067091;28;20206;-75
2020/12/09 06:57:20;;;;;;;114.67;34.83;;;1.70;99.90;;;;;;5073100;28;20203;-75
2020/12/09 06:59:48;;;;;;;101.87;33.33;;;1.70;99.90;;;;;;5071363;28;20298;-74
2020/12/09 07:02:27;;;;;;;129.03;36.43;;;1.70;99.90;;;;;;5070168;28;20225;-74
2020/12/09 07:05:10;;;;;;;97.03;31.67;;;1.70;99.90;;;;;;5071863;28;20210;-74
2020/12/09 07:07:48;;;;;;;103.13;31.07;;;1.60;99.90;;;;;;5072777;28;20256;-75
2020/12/09 07:10:26;;;;;;;89.53;28.73;;;1.60;99.90;;;;;;5071864;28;20240;-73
2020/12/09 07:13:21;;;;;;;98.27;31.00;;;1.60;99.90;;;;;;5070863;28;20252;-74
2020/12/09 07:15:52;;;;;;;97.03;30.57;;;1.50;99.90;;;;;;5016984;28;20209;-74
2020/12/09 07:18:19;;;;;;;96.13;30.63;;;1.60;99.90;;;;;;5070769;28;20251;-74
2020/12/09 07:20:47;;;;;;;95.63;30.07;;;1.60;99.90;;;;;;5057716;28;20729;-74
2020/12/09 07:23:14;;;;;;;96.70;30.77;;;1.50;99.90;;;;;;5073568;28;20209;-74
2020/12/09 07:25:41;;;;;;;94.10;31.50;;;1.50;99.90;;;;;;5075172;28;20249;-75
2020/12/09 07:28:08;;;;;;;95.80;31.23;;;1.50;99.90;;;;;;5072814;28;20206;-75
2020/12/09 07:30:34;;;;;;;78.10;27.83;;;1.50;99.90;;;;;;5074135;28;20234;-74
2020/12/09 07:33:01;;;;;;;78.03;26.77;;;1.50;99.90;;;;;;5066189;28;20295;-74
2020/12/09 07:35:28;;;;;;;80.17;28.40;;;1.50;99.90;;;;;;5073016;28;20206;-74
2020/12/09 07:37:57;;;;;;;84.50;29.07;;;1.50;99.90;;;;;;5069124;28;20536;-74
2020/12/09 07:40:27;;;;;;;92.47;30.47;;;1.50;99.90;;;;;;5065735;28;20245;-74
2020/12/09 07:43:14;;;;;;;90.63;32.17;;;1.50;99.90;;;;;;5071191;28;20895;-74
2020/12/09 07:45:42;;;;;;;93.97;32.17;;;1.60;99.90;;;;;;5066291;28;20218;-74
2020/12/09 07:48:10;;;;;;;104.17;31.43;;;1.60;99.90;;;;;;5070111;28;20225;-74
2020/12/09 07:50:38;;;;;;;105.00;33.13;;;1.60;99.90;;;;;;5072154;28;20303;-75
2020/12/09 07:53:10;;;;;;;89.77;32.40;;;1.70;99.90;;;;;;5070371;28;20210;-76
2020/12/09 07:55:37;;;;;;;91.67;32.70;;;1.70;99.90;;;;;;5059779;28;20227;-75
2020/12/09 07:58:05;;;;;;;101.00;33.43;;;1.70;99.90;;;;;;5072811;28;20222;-74
2020/12/09 08:00:36;;;;;;;95.67;32.40;;;1.70;99.90;;;;;;5072960;28;20199;-74
2020/12/09 08:03:03;;;;;;;83.77;31.07;;;1.70;99.90;;;;;;5077561;28;20207;-74
2020/12/09 08:05:35;;;;;;;96.63;32.73;;;1.70;99.90;;;;;;5066749;28;20725;-75
2020/12/09 08:08:05;;;;;;;104.13;34.40;;;1.80;99.90;;;;;;5069490;28;20203;-75
2020/12/09 08:10:33;;;;;;;117.40;34.50;;;1.90;99.90;;;;;;5066839;28;20628;-74
2020/12/09 08:13:01;;;;;;;117.00;35.93;;;1.90;99.90;;;;;;5068494;28;20203;-75
2020/12/09 08:15:28;;;;;;;122.27;36.90;;;2.00;99.90;;;;;;5066231;28;20206;-73
2020/12/09 08:17:55;;;;;;;105.67;34.40;;;2.00;99.90;;;;;;5064092;28;20250;-74
2020/12/09 08:20:21;;;;;;;100.17;33.70;;;2.00;99.90;;;;;;5073944;28;20203;-75
2020/12/09 08:22:56;;;;;;;91.87;32.90;;;2.00;99.90;;;;;;5071735;28;20202;-73
2020/12/09 08:25:25;;;;;;;88.87;31.47;;;2.00;99.90;;;;;;5072052;28;20219;-75
2020/12/09 08:27:54;;;;;;;96.37;31.60;;;2.00;99.90;;;;;;5068929;28;20210;-73
2020/12/09 08:30:22;;;;;;;89.53;30.23;;;2.10;99.90;;;;;;5073814;28;20698;-74
2020/12/09 08:33:14;;;;;;;79.97;28.73;;;2.00;99.90;;;;;;5071212;28;20628;-74
2020/12/09 08:35:52;;;;;;;86.43;28.97;;;1.90;99.90;;;;;;5063603;28;20259;-74
2020/12/09 08:38:34;;;;;;;85.57;29.57;;;1.90;99.90;;;;;;5070040;28;20264;-76
2020/12/09 08:41:03;;;;;;;87.90;29.77;;;2.00;99.90;;;;;;5074396;28;20259;-74
2020/12/09 08:43:31;;;;;;;92.83;30.03;;;2.00;99.90;;;;;;5073990;28;20210;-74
2020/12/09 08:45:58;;;;;;;87.70;28.53;;;2.00;99.90;;;;;;5069864;28;20210;-75
2020/12/09 08:48:25;;;;;;;85.37;29.33;;;2.00;99.90;;;;;;5074390;28;20660;-73
2020/12/09 08:50:52;;;;;;;83.10;27.30;;;2.00;99.90;;;;;;5075650;28;20231;-70
2020/12/09 08:53:20;;;;;;;85.63;30.20;;;2.00;99.90;;;;;;5067878;28;20206;-76
2020/12/09 08:55:47;;;;;;;74.93;26.70;;;2.00;99.90;;;;;;5071528;28;20195;-75
2020/12/09 08:58:15;;;;;;;83.23;27.13;;;2.00;99.90;;;;;;5067942;28;20203;-72
2020/12/09 09:00:43;;;;;;;90.17;29.37;;;1.90;99.90;;;;;;5066148;28;20203;-72
2020/12/09 09:03:12;;;;;;;85.70;28.23;;;1.90;99.90;;;;;;5074218;28;20624;-72
2020/12/09 09:05:40;;;;;;;90.77;29.17;;;2.00;99.90;;;;;;5071352;28;20203;-72
2020/12/09 09:08:07;;;;;;;94.03;30.30;;;2.00;99.90;;;;;;5068399;28;20199;-73
2020/12/09 09:10:34;;;;;;;101.97;30.90;;;2.00;99.90;;;;;;5075126;28;20227;-72
2020/12/09 09:13:00;;;;;;;106.87;30.90;;;2.10;99.90;;;;;;5073600;28;20203;-74
2020/12/09 09:15:28;;;;;;;90.07;28.70;;;2.10;99.90;;;;;;5066765;28;20198;-72
2020/12/09 09:17:54;;;;;;;91.77;29.47;;;2.10;99.90;;;;;;5068975;28;20648;-74
2020/12/09 09:20:21;;;;;;;89.00;29.57;;;2.10;99.90;;;;;;5074978;28;20203;-72
2020/12/09 09:22:47;;;;;;;84.77;29.80;;;2.10;99.90;;;;;;5074128;28;20264;-72
2020/12/09 09:25:14;;;;;;;82.33;27.70;;;2.10;99.90;;;;;;5074106;28;20667;-73
2020/12/09 09:27:41;;;;;;;88.83;28.37;;;2.10;99.90;;;;;;5066727;28;20261;-72
2020/12/09 09:30:08;;;;;;;83.30;27.40;;;2.00;99.90;;;;;;5065720;28;20835;-73
2020/12/09 09:32:35;;;;;;;75.57;28.37;;;2.00;99.90;;;;;;5069225;28;22245;-70
2020/12/09 09:35:02;;;;;;;76.93;26.40;;;2.00;99.90;;;;;;5061904;28;20305;-71
2020/12/09 09:37:30;;;;;;;73.57;27.87;;;2.00;99.90;;;;;;5078531;28;20199;-74
2020/12/09 09:39:56;;;;;;;81.40;26.80;;;2.00;99.90;;;;;;5065949;28;20923;-74
2020/12/09 09:42:23;;;;;;;75.67;27.90;;;2.00;99.90;;;;;;5060492;28;20210;-73
2020/12/09 09:44:50;;;;;;;70.83;27.23;;;2.00;99.90;;;;;;5077054;28;20210;-73
2020/12/09 09:47:17;;;;;;;70.67;27.23;;;2.00;99.90;;;;;;5070134;28;20584;-73
2020/12/09 09:49:44;;;;;;;72.40;26.43;;;2.00;99.90;;;;;;5074181;28;20226;-73
2020/12/09 09:52:11;;;;;;;72.23;25.93;;;2.10;99.90;;;;;;5070304;28;20264;-72
2020/12/09 09:54:38;;;;;;;78.70;28.40;;;2.10;99.90;;;;;;5074253;28;20604;-72
2020/12/09 09:57:05;;;;;;;70.30;26.73;;;2.10;99.90;;;;;;5070110;28;20206;-73
2020/12/09 09:59:31;;;;;;;76.63;28.00;;;2.10;99.90;;;;;;5069490;28;20269;-73
2020/12/09 10:01:58;;;;;;;80.57;28.40;;;2.10;99.90;;;;;;5066733;28;20204;-71
2020/12/09 10:04:25;;;;;;;83.47;28.20;;;2.10;99.90;;;;;;5064658;28;20204;-71
2020/12/09 10:06:52;;;;;;;81.27;27.60;;;2.10;99.90;;;;;;5070449;28;20263;-73
2020/12/09 10:09:19;;;;;;;79.03;27.33;;;2.20;99.90;;;;;;5065921;28;20233;-74
2020/12/09 10:11:46;;;;;;;87.10;30.47;;;2.20;99.90;;;;;;5069216;28;20599;-73
2020/12/09 10:14:13;;;;;;;85.80;30.37;;;2.20;99.90;;;;;;5068481;28;20203;-74
2020/12/09 10:16:42;;;;;;;89.77;29.23;;;2.30;99.90;;;;;;5068191;28;20203;-72
2020/12/09 10:19:09;;;;;;;92.67;31.43;;;2.30;99.90;;;;;;5072150;28;20229;-73
2020/12/09 10:21:36;;;;;;;96.03;32.80;;;2.40;99.90;;;;;;5069520;28;20199;-73
2020/12/09 10:24:05;;;;;;;80.87;30.30;;;2.50;99.90;;;;;;5072561;28;20307;-71
2020/12/09 10:26:34;;;;;;;92.83;31.97;;;2.50;99.90;;;;;;5069097;28;20641;-71
2020/12/09 10:29:02;;;;;;;85.63;31.10;;;2.50;99.90;;;;;;5071756;28;20195;-72
2020/12/09 10:31:33;;;;;;;96.87;34.77;;;2.50;99.90;;;;;;5070948;28;20599;-72
2020/12/09 10:34:00;;;;;;;118.57;37.30;;;2.60;99.90;;;;;;5071987;28;20191;-73
2020/12/09 10:36:27;;;;;;;117.73;36.80;;;2.60;99.90;;;;;;5071095;28;20211;-74
2020/12/09 10:38:53;;;;;;;107.43;36.87;;;2.70;99.90;;;;;;5071046;28;20619;-73
2020/12/09 10:41:21;;;;;;;105.43;37.00;;;2.70;99.90;;;;;;5068205;28;21499;-75
2020/12/09 10:43:50;;;;;;;102.10;37.40;;;2.70;99.90;;;;;;5069899;28;20284;-74
2020/12/09 10:46:17;;;;;;;110.87;38.47;;;2.70;99.90;;;;;;5070316;28;20210;-74
2020/12/09 10:48:44;;;;;;;103.47;37.43;;;2.60;99.90;;;;;;5069650;28;20191;-76
2020/12/09 10:51:10;;;;;;;115.13;37.30;;;2.60;99.90;;;;;;5068153;28;20228;-74
2020/12/09 10:53:37;;;;;;;108.07;38.90;;;2.60;99.90;;;;;;5069507;28;20199;-75
2020/12/09 10:56:03;;;;;;;101.07;38.67;;;2.60;99.90;;;;;;5071941;28;20195;-80
2020/12/09 10:58:31;;;;;;;106.63;40.83;;;2.70;99.90;;;;;;5070324;28;20199;-79
2020/12/09 11:00:58;;;;;;;104.90;38.37;;;2.80;99.90;;;;;;5070643;28;20199;-87
2020/12/09 11:03:25;;;;;;;103.27;39.77;;;2.90;99.90;;;;;;5068993;28;20677;-71
2020/12/09 11:05:52;;;;;;;103.07;39.60;;;3.00;99.90;;;;;;5072405;28;20195;-72
2020/12/09 11:08:18;;;;;;;102.00;38.90;;;3.00;99.90;;;;;;5073326;28;20195;-74
2020/12/09 11:10:45;;;;;;;103.73;38.70;;;3.10;99.90;;;;;;5068126;28;20289;-72
2020/12/09 11:13:11;;;;;;;87.00;35.33;;;3.10;99.90;;;;;;5068335;28;20198;-73
2020/12/09 11:15:39;;;;;;;80.40;32.40;;;3.10;99.90;;;;;;5067878;28;20256;-73
2020/12/09 11:18:06;;;;;;;57.07;26.17;;;3.00;99.90;;;;;;5068120;28;20647;-71
2020/12/09 11:20:35;;;;;;;58.63;25.80;;;3.00;99.90;;;;;;5072739;28;20233;-70
2020/12/09 11:23:01;;;;;;;52.67;24.87;;;3.00;99.90;;;;;;5069021;28;20617;-73
2020/12/09 11:25:28;;;;;;;59.67;26.93;;;2.90;99.90;;;;;;5069648;28;20213;-73
2020/12/09 11:27:54;;;;;;;54.67;26.23;;;2.90;99.90;;;;;;5070156;28;20252;-73
2020/12/09 11:30:21;;;;;;;53.67;25.93;;;2.90;99.90;;;;;;5069150;28;20326;-74
2020/12/09 11:32:48;;;;;;;54.17;25.50;;;3.00;99.90;;;;;;5068756;28;20199;-74
2020/12/09 11:35:14;;;;;;;51.60;24.43;;;3.00;99.90;;;;;;5069839;28;20268;-73
2020/12/09 11:37:41;;;;;;;44.80;23.77;;;3.00;99.90;;;;;;5069524;28;20253;-74
2020/12/09 11:40:08;;;;;;;48.63;24.67;;;3.00;99.90;;;;;;5068579;28;20202;-73
2020/12/09 11:42:36;;;;;;;45.27;23.77;;;3.00;99.90;;;;;;5067275;28;20195;-73
2020/12/09 11:45:04;;;;;;;42.93;22.83;;;3.00;99.90;;;;;;5068297;28;20203;-74
2020/12/09 11:47:31;;;;;;;49.37;23.67;;;3.10;99.90;;;;;;5066818;28;20203;-74
2020/12/09 11:49:58;;;;;;;45.00;23.53;;;3.10;99.90;;;;;;5069638;28;21017;-72
2020/12/09 11:52:25;;;;;;;44.70;23.30;;;3.10;99.90;;;;;;5067926;28;20241;-75
2020/12/09 11:54:51;;;;;;;45.70;23.20;;;3.10;99.90;;;;;;5068570;28;20195;-76
2020/12/09 11:57:18;;;;;;;43.07;22.60;;;3.20;99.90;;;;;;5068866;28;20207;-73
2020/12/09 11:59:44;;;;;;;41.17;22.40;;;3.20;99.90;;;;;;5066766;28;20273;-75
2020/12/09 12:02:11;;;;;;;39.13;19.77;;;3.20;99.90;;;;;;5067566;28;20672;-73
2020/12/09 12:04:37;;;;;;;35.37;19.27;;;3.20;99.90;;;;;;5069068;28;20669;-74
2020/12/09 12:07:05;;;;;;;33.83;18.67;;;3.20;99.90;;;;;;5067872;28;20190;-75
2020/12/09 12:09:31;;;;;;;39.77;20.83;;;3.30;99.90;;;;;;5066333;28;20284;-75
2020/12/09 12:11:58;;;;;;;35.07;19.47;;;3.30;99.90;;;;;;5065739;28;20203;-73
2020/12/09 12:14:24;;;;;;;35.20;17.23;;;3.30;99.90;;;;;;5064900;28;20639;-72
2020/12/09 12:16:52;;;;;;;40.07;19.53;;;3.40;99.90;;;;;;5068950;28;20206;-73
2020/12/09 12:19:19;;;;;;;32.80;18.43;;;3.40;99.90;;;;;;5068702;28;20231;-73
2020/12/09 12:21:49;;;;;;;34.27;18.20;;;3.40;99.90;;;;;;5067861;28;20584;-72
2020/12/09 12:24:17;;;;;;;33.13;18.53;;;3.40;99.90;;;;;;5070181;28;20186;-73
2020/12/09 12:26:43;;;;;;;29.23;16.77;;;3.40;99.90;;;;;;5067845;28;20203;-72
2020/12/09 12:29:10;;;;;;;31.87;17.17;;;3.30;99.90;;;;;;5069930;28;20252;-73
2020/12/09 12:31:36;;;;;;;31.47;17.37;;;3.40;99.90;;;;;;5068796;28;20230;-72
2020/12/09 12:34:03;;;;;;;29.10;17.40;;;3.30;99.90;;;;;;5070826;28;20195;-73
2020/12/09 12:36:29;;;;;;;31.83;16.87;;;3.30;99.90;;;;;;5065686;28;20202;-72